Sw Cap Ferrat 1 — 3FZK6 — position and weather

sailwx.info

Track history (hours):
 
Tides and Currents Weather Stations Pressure Air Temp Water Temp Dewpoint Dewpoint Depression Visibility Wind Speed Wind Dir Waves Ship Positions

Sw Cap Ferrat 1

Last reported at 2017-Apr-30 21:14 UTC. Time now 2017-Apr-30 22:37 UTC.
Position N 40°59' E 028°60'.

Length 183 m; draft 7.2 m.

Type: Tanker. MMSI: 374419000.

Date/timePositionNaut miles runAvg speedWind from/ knotsBaromVisibWave heightAir tempDewpointWater temp
2017-Apr-30 21:14N 40°59' E 028°60'2 7.0
2017-Apr-30 21:00N 40°57' E 028°59'4 8.0
2017-Apr-30 20:28N 40°54' E 028°56'4 8.8
2017-Apr-30 20:00N 40°51' E 028°52'5 9.2
2017-Apr-30 19:30N 40°47' E 028°50'4 1.6
2017-Apr-30 16:55N 40°43' E 028°48'1 1.4
2017-Apr-30 16:30N 40°43' E 028°49'2 1.3
2017-Apr-30 14:49N 40°44' E 028°51'0 0.6
2017-Apr-30 14:19N 40°44' E 028°51'1 0.8
2017-Apr-30 12:31N 40°44' E 028°49'0 0.8
2017-Apr-30 12:01N 40°44' E 028°49'3 5.1
2017-Apr-30 11:24N 40°41' E 028°49'0 0.6
2017-Apr-30 10:35N 40°41' E 028°49'0 0.7
2017-Apr-30 10:23N 40°41' E 028°49'0 0.7
2017-Apr-30 09:41N 40°41' E 028°50'0 0.5
2017-Apr-30 09:28N 40°41' E 028°50'0 0.5
2017-Apr-30 08:38N 40°42' E 028°50'0 0.5
2017-Apr-30 08:29N 40°42' E 028°50'0 0.4
2017-Apr-30 07:58N 40°42' E 028°50'0 0.4
2017-Apr-30 06:47N 40°43' E 028°50'0 0.3
2017-Apr-30 06:25N 40°43' E 028°50'0 0.3
2017-Apr-30 05:48N 40°43' E 028°50'0 0.1
2017-Apr-30 04:02N 40°43' E 028°50'0 0.2
2017-Apr-30 03:57N 40°43' E 028°50'0 0.3
2017-Apr-30 03:30N 40°43' E 028°50'1 0.2
2017-Apr-30 01:09N 40°43' E 028°49'0 0.2
2017-Apr-30 00:59N 40°43' E 028°49'0 0.1
2017-Apr-30 00:02N 40°43' E 028°49'0 0.2
2017-Apr-29 23:59N 40°43' E 028°49'0 0.2
2017-Apr-29 23:27N 40°43' E 028°49'0 0.1
2017-Apr-29 22:49N 40°43' E 028°49'0 0.1
2017-Apr-29 22:01N 40°43' E 028°49'0 0.0
2017-Apr-29 22:00N 40°43' E 028°49'2 2.2
2017-Apr-29 21:14N 40°43' E 028°47'1 0.1
2017-Apr-29 09:05N 40°42' E 028°45'0 0.5
2017-Apr-29 08:55N 40°42' E 028°45'0 0.5
2017-Apr-29 08:27N 40°42' E 028°45'0 0.4
2017-Apr-29 07:55N 40°42' E 028°46'0 0.5
2017-Apr-29 07:08N 40°42' E 028°46'0 0.4
2017-Apr-29 06:56N 40°43' E 028°46'0 0.4
2017-Apr-29 06:30N 40°43' E 028°46'0 0.4
2017-Apr-29 05:58N 40°43' E 028°47'0 0.5
2017-Apr-29 05:28N 40°43' E 028°47'0 0.5
2017-Apr-29 04:58N 40°43' E 028°47'0 0.5
2017-Apr-29 04:29N 40°43' E 028°47'0 0.5
2017-Apr-29 04:00N 40°43' E 028°48'0 0.5
2017-Apr-29 03:30N 40°44' E 028°48'0 0.3
2017-Apr-29 03:00N 40°44' E 028°48'0 0.3
2017-Apr-29 02:23N 40°44' E 028°48'0 0.2
2017-Apr-29 01:59N 40°44' E 028°48'0 0.4
2017-Apr-29 01:29N 40°44' E 028°48'1 2.1
2017-Apr-29 01:01N 40°43' E 028°47'1 1.5
2017-Apr-29 00:30N 40°43' E 028°48'0 0.9
2017-Apr-28 23:59N 40°43' E 028°49'1 0.9
2017-Apr-28 23:13N 40°43' E 028°50'0 1.0
2017-Apr-28 22:55N 40°44' E 028°50'0 1.0
2017-Apr-28 22:26N 40°44' E 028°50'0 1.0
2017-Apr-28 22:00N 40°44' E 028°51'1 0.9
2017-Apr-28 21:13N 40°45' E 028°51'0 1.0
2017-Apr-28 21:00N 40°45' E 028°51'1 0.9
2017-Apr-28 19:44N 40°46' E 028°52'0 1.0
2017-Apr-28 19:30N 40°46' E 028°52'0 1.0
2017-Apr-28 19:00N 40°47' E 028°53'1 0.9
2017-Apr-28 17:30N 40°48' E 028°54'0 0.9
2017-Apr-28 17:00N 40°48' E 028°54'1 1.5
2017-Apr-28 16:25N 40°49' E 028°54'3 8.0
2017-Apr-28 16:00N 40°52' E 028°52'4 0.5
2017-Apr-28 07:43N 40°56' E 028°50'1 3.5
2017-Apr-28 07:21N 40°55' E 028°51'3 9.1
2017-Apr-28 07:00N 40°52' E 028°48'1113.7
2017-Apr-28 06:10N 40°49' E 028°34'10612.8
2017-Apr-27 21:50N 40°10' E 026°23'1010.8
2017-Apr-27 20:52N 40°02' E 026°15'4 7.9
2017-Apr-27 20:23N 40°01' E 026°10'4 8.5
2017-Apr-27 19:55N 39°60' E 026°05'16 8.7
2017-Apr-27 18:04N 39°48' E 025°51'313.5
2017-Apr-27 17:50N 39°45' E 025°53'1 2.2
2017-Apr-27 17:11N 39°43' E 025°54'0 0.2
2017-Apr-27 17:00N 39°43' E 025°54'41 4.7
2017-Apr-27 08:12N 39°08' E 025°26'713.8
2017-Apr-27 07:40N 39°01' E 025°22'6913.2
2017-Apr-27 02:26N 37°53' E 025°37'614.2
2017-Apr-27 02:00N 37°47' E 025°41'713.7
2017-Apr-27 01:30N 37°41' E 025°45'714.1
2017-Apr-27 01:00N 37°35' E 025°48'714.3
2017-Apr-27 00:31N 37°28' E 025°50'  
2017-Apr-22 18:58N 34°20' E 035°38'4 9.9
2017-Apr-22 18:31N 34°17' E 035°34'713.2
2017-Apr-22 18:01N 34°11' E 035°33'16 0.5
2017-Apr-21 10:48N 33°54' E 035°33'0 0.0
2017-Apr-21 10:30N 33°54' E 035°33'0 0.0
2017-Apr-21 10:00N 33°54' E 035°33'1 1.6
2017-Apr-21 09:30N 33°55' E 035°33'2 3.0
2017-Apr-21 09:00N 33°56' E 035°31'4 8.1
2017-Apr-21 08:30N 33°56' E 035°26'611.6
2017-Apr-21 08:00N 33°50' E 035°24'612.8
2017-Apr-21 07:30N 33°44' E 035°22'4 8.8
2017-Apr-21 07:00N 33°40' E 035°24'  
Track history (hours):
 
Tides and Currents Weather Stations Pressure Air Temp Water Temp Dewpoint Dewpoint Depression Visibility Wind Speed Wind Dir Waves Ship Positions

Sw Cap Ferrat 1

Last reported at 2017-Apr-30 21:14 UTC. Time now 2017-Apr-30 22:37 UTC.
Position N 40°59' E 028°60'.

Length 183 m; draft 7.2 m.

Type: Tanker. MMSI: 374419000.

Date/timePositionNaut miles runAvg speedWind from/ knotsBaromVisibWave heightAir tempDewpointWater temp
2017-Apr-30 21:14N 40°59' E 028°60'2 7.0
2017-Apr-30 21:00N 40°57' E 028°59'4 8.0
2017-Apr-30 20:28N 40°54' E 028°56'4 8.8
2017-Apr-30 20:00N 40°51' E 028°52'5 9.2
2017-Apr-30 19:30N 40°47' E 028°50'4 1.6
2017-Apr-30 16:55N 40°43' E 028°48'1 1.4
2017-Apr-30 16:30N 40°43' E 028°49'2 1.3
2017-Apr-30 14:49N 40°44' E 028°51'0 0.6
2017-Apr-30 14:19N 40°44' E 028°51'1 0.8
2017-Apr-30 12:31N 40°44' E 028°49'0 0.8
2017-Apr-30 12:01N 40°44' E 028°49'3 5.1
2017-Apr-30 11:24N 40°41' E 028°49'0 0.6
2017-Apr-30 10:35N 40°41' E 028°49'0 0.7
2017-Apr-30 10:23N 40°41' E 028°49'0 0.7
2017-Apr-30 09:41N 40°41' E 028°50'0 0.5
2017-Apr-30 09:28N 40°41' E 028°50'0 0.5
2017-Apr-30 08:38N 40°42' E 028°50'0 0.5
2017-Apr-30 08:29N 40°42' E 028°50'0 0.4
2017-Apr-30 07:58N 40°42' E 028°50'0 0.4
2017-Apr-30 06:47N 40°43' E 028°50'0 0.3
2017-Apr-30 06:25N 40°43' E 028°50'0 0.3
2017-Apr-30 05:48N 40°43' E 028°50'0 0.1
2017-Apr-30 04:02N 40°43' E 028°50'0 0.2
2017-Apr-30 03:57N 40°43' E 028°50'0 0.3
2017-Apr-30 03:30N 40°43' E 028°50'1 0.2
2017-Apr-30 01:09N 40°43' E 028°49'0 0.2
2017-Apr-30 00:59N 40°43' E 028°49'0 0.1
2017-Apr-30 00:02N 40°43' E 028°49'0 0.2
2017-Apr-29 23:59N 40°43' E 028°49'0 0.2
2017-Apr-29 23:27N 40°43' E 028°49'0 0.1
2017-Apr-29 22:49N 40°43' E 028°49'0 0.1
2017-Apr-29 22:01N 40°43' E 028°49'0 0.0
2017-Apr-29 22:00N 40°43' E 028°49'2 2.2
2017-Apr-29 21:14N 40°43' E 028°47'1 0.1
2017-Apr-29 09:05N 40°42' E 028°45'0 0.5
2017-Apr-29 08:55N 40°42' E 028°45'0 0.5
2017-Apr-29 08:27N 40°42' E 028°45'0 0.4
2017-Apr-29 07:55N 40°42' E 028°46'0 0.5
2017-Apr-29 07:08N 40°42' E 028°46'0 0.4
2017-Apr-29 06:56N 40°43' E 028°46'0 0.4
2017-Apr-29 06:30N 40°43' E 028°46'0 0.4
2017-Apr-29 05:58N 40°43' E 028°47'0 0.5
2017-Apr-29 05:28N 40°43' E 028°47'0 0.5
2017-Apr-29 04:58N 40°43' E 028°47'0 0.5
2017-Apr-29 04:29N 40°43' E 028°47'0 0.5
2017-Apr-29 04:00N 40°43' E 028°48'0 0.5
2017-Apr-29 03:30N 40°44' E 028°48'0 0.3
2017-Apr-29 03:00N 40°44' E 028°48'0 0.3
2017-Apr-29 02:23N 40°44' E 028°48'0 0.2
2017-Apr-29 01:59N 40°44' E 028°48'0 0.4
2017-Apr-29 01:29N 40°44' E 028°48'1 2.1
2017-Apr-29 01:01N 40°43' E 028°47'1 1.5
2017-Apr-29 00:30N 40°43' E 028°48'0 0.9
2017-Apr-28 23:59N 40°43' E 028°49'1 0.9
2017-Apr-28 23:13N 40°43' E 028°50'0 1.0
2017-Apr-28 22:55N 40°44' E 028°50'0 1.0
2017-Apr-28 22:26N 40°44' E 028°50'0 1.0
2017-Apr-28 22:00N 40°44' E 028°51'1 0.9
2017-Apr-28 21:13N 40°45' E 028°51'0 1.0
2017-Apr-28 21:00N 40°45' E 028°51'1 0.9
2017-Apr-28 19:44N 40°46' E 028°52'0 1.0
2017-Apr-28 19:30N 40°46' E 028°52'0 1.0
2017-Apr-28 19:00N 40°47' E 028°53'1 0.9
2017-Apr-28 17:30N 40°48' E 028°54'0 0.9
2017-Apr-28 17:00N 40°48' E 028°54'1 1.5
2017-Apr-28 16:25N 40°49' E 028°54'3 8.0
2017-Apr-28 16:00N 40°52' E 028°52'4 0.5
2017-Apr-28 07:43N 40°56' E 028°50'1 3.5
2017-Apr-28 07:21N 40°55' E 028°51'3 9.1
2017-Apr-28 07:00N 40°52' E 028°48'1113.7
2017-Apr-28 06:10N 40°49' E 028°34'10612.8
2017-Apr-27 21:50N 40°10' E 026°23'1010.8
2017-Apr-27 20:52N 40°02' E 026°15'4 7.9
2017-Apr-27 20:23N 40°01' E 026°10'4 8.5
2017-Apr-27 19:55N 39°60' E 026°05'16 8.7
2017-Apr-27 18:04N 39°48' E 025°51'313.5
2017-Apr-27 17:50N 39°45' E 025°53'1 2.2
2017-Apr-27 17:11N 39°43' E 025°54'0 0.2
2017-Apr-27 17:00N 39°43' E 025°54'41 4.7
2017-Apr-27 08:12N 39°08' E 025°26'713.8
2017-Apr-27 07:40N 39°01' E 025°22'6913.2
2017-Apr-27 02:26N 37°53' E 025°37'614.2
2017-Apr-27 02:00N 37°47' E 025°41'713.7
2017-Apr-27 01:30N 37°41' E 025°45'714.1
2017-Apr-27 01:00N 37°35' E 025°48'714.3
2017-Apr-27 00:31N 37°28' E 025°50'  
2017-Apr-22 18:58N 34°20' E 035°38'4 9.9
2017-Apr-22 18:31N 34°17' E 035°34'713.2
2017-Apr-22 18:01N 34°11' E 035°33'16 0.5
2017-Apr-21 10:48N 33°54' E 035°33'0 0.0
2017-Apr-21 10:30N 33°54' E 035°33'0 0.0
2017-Apr-21 10:00N 33°54' E 035°33'1 1.6
2017-Apr-21 09:30N 33°55' E 035°33'2 3.0
2017-Apr-21 09:00N 33°56' E 035°31'4 8.1
2017-Apr-21 08:30N 33°56' E 035°26'611.6
2017-Apr-21 08:00N 33°50' E 035°24'612.8
2017-Apr-21 07:30N 33°44' E 035°22'4 8.8
2017-Apr-21 07:00N 33°40' E 035°24'  

Dump ship's entire track history